sensor_id;sensor_type;location;lat;lon;timestamp;P1;durP1;ratioP1;P2;durP2;ratioP2
77409;SDS011;66481;51.332;22.804;2023-09-30T00:01:51;24.75;;;17.05;;
77409;SDS011;66481;51.332;22.804;2023-09-30T00:05:52;22.75;;;16.92;;
77409;SDS011;66481;51.332;22.804;2023-09-30T00:09:53;25.63;;;18.02;;
77409;SDS011;66481;51.332;22.804;2023-09-30T00:13:54;24.38;;;15.45;;
77409;SDS011;66481;51.332;22.804;2023-09-30T00:17:55;23.15;;;15.75;;
77409;SDS011;66481;51.332;22.804;2023-09-30T00:21:56;22.35;;;15.98;;
77409;SDS011;66481;51.332;22.804;2023-09-30T00:25:57;23.25;;;15.23;;
77409;SDS011;66481;51.332;22.804;2023-09-30T00:29:58;23.38;;;16.80;;
77409;SDS011;66481;51.332;22.804;2023-09-30T00:33:59;22.80;;;16.00;;
77409;SDS011;66481;51.332;22.804;2023-09-30T00:38:00;25.48;;;16.20;;
77409;SDS011;66481;51.332;22.804;2023-09-30T00:42:01;22.50;;;15.50;;
77409;SDS011;66481;51.332;22.804;2023-09-30T00:46:13;26.13;;;17.60;;
77409;SDS011;66481;51.332;22.804;2023-09-30T00:50:24;24.83;;;16.88;;
77409;SDS011;66481;51.332;22.804;2023-09-30T00:54:27;25.42;;;17.30;;
77409;SDS011;66481;51.332;22.804;2023-09-30T00:58:28;27.38;;;17.48;;
77409;SDS011;66481;51.332;22.804;2023-09-30T01:02:31;24.35;;;15.73;;
77409;SDS011;66481;51.332;22.804;2023-09-30T01:06:32;23.17;;;16.33;;
77409;SDS011;66481;51.332;22.804;2023-09-30T01:10:33;26.00;;;16.73;;
77409;SDS011;66481;51.332;22.804;2023-09-30T01:14:34;24.05;;;17.63;;
77409;SDS011;66481;51.332;22.804;2023-09-30T01:18:36;22.00;;;14.60;;
77409;SDS011;66481;51.332;22.804;2023-09-30T01:22:40;22.42;;;16.48;;
77409;SDS011;66481;51.332;22.804;2023-09-30T01:26:41;24.67;;;16.05;;
77409;SDS011;66481;51.332;22.804;2023-09-30T01:30:42;24.13;;;15.70;;
77409;SDS011;66481;51.332;22.804;2023-09-30T01:34:44;22.80;;;15.93;;
77409;SDS011;66481;51.332;22.804;2023-09-30T01:38:45;21.80;;;15.85;;
77409;SDS011;66481;51.332;22.804;2023-09-30T01:42:46;22.67;;;15.40;;
77409;SDS011;66481;51.332;22.804;2023-09-30T01:46:47;21.80;;;15.20;;
77409;SDS011;66481;51.332;22.804;2023-09-30T01:50:48;22.30;;;15.48;;
77409;SDS011;66481;51.332;22.804;2023-09-30T01:54:49;26.25;;;15.63;;
77409;SDS011;66481;51.332;22.804;2023-09-30T01:58:50;24.73;;;16.45;;
77409;SDS011;66481;51.332;22.804;2023-09-30T02:02:51;23.50;;;15.45;;
77409;SDS011;66481;51.332;22.804;2023-09-30T02:06:52;20.77;;;14.85;;
77409;SDS011;66481;51.332;22.804;2023-09-30T02:10:53;24.08;;;15.93;;
77409;SDS011;66481;51.332;22.804;2023-09-30T02:14:54;24.25;;;16.52;;
77409;SDS011;66481;51.332;22.804;2023-09-30T02:18:55;23.20;;;16.25;;
77409;SDS011;66481;51.332;22.804;2023-09-30T02:22:56;24.73;;;16.35;;
77409;SDS011;66481;51.332;22.804;2023-09-30T02:26:59;23.58;;;17.52;;
77409;SDS011;66481;51.332;22.804;2023-09-30T02:31:01;25.58;;;17.23;;
77409;SDS011;66481;51.332;22.804;2023-09-30T02:35:02;26.50;;;17.92;;
77409;SDS011;66481;51.332;22.804;2023-09-30T02:39:05;23.65;;;16.83;;
77409;SDS011;66481;51.332;22.804;2023-09-30T02:43:07;24.80;;;17.45;;
77409;SDS011;66481;51.332;22.804;2023-09-30T02:47:08;23.23;;;15.55;;
77409;SDS011;66481;51.332;22.804;2023-09-30T02:51:10;25.40;;;16.10;;
77409;SDS011;66481;51.332;22.804;2023-09-30T02:55:12;26.55;;;15.55;;
77409;SDS011;66481;51.332;22.804;2023-09-30T02:59:13;24.52;;;16.40;;
77409;SDS011;66481;51.332;22.804;2023-09-30T03:03:14;22.35;;;14.98;;
77409;SDS011;66481;51.332;22.804;2023-09-30T03:07:17;22.52;;;16.20;;
77409;SDS011;66481;51.332;22.804;2023-09-30T03:11:20;21.88;;;15.60;;
77409;SDS011;66481;51.332;22.804;2023-09-30T03:15:21;23.23;;;15.80;;
77409;SDS011;66481;51.332;22.804;2023-09-30T03:19:23;24.48;;;15.77;;
77409;SDS011;66481;51.332;22.804;2023-09-30T03:23:25;24.42;;;16.42;;
77409;SDS011;66481;51.332;22.804;2023-09-30T03:27:29;26.02;;;17.48;;
77409;SDS011;66481;51.332;22.804;2023-09-30T03:31:31;26.90;;;16.75;;
77409;SDS011;66481;51.332;22.804;2023-09-30T03:35:32;25.92;;;16.17;;
77409;SDS011;66481;51.332;22.804;2023-09-30T03:39:32;24.63;;;15.65;;
77409;SDS011;66481;51.332;22.804;2023-09-30T03:43:34;27.17;;;16.70;;
77409;SDS011;66481;51.332;22.804;2023-09-30T03:47:41;28.55;;;17.45;;
77409;SDS011;66481;51.332;22.804;2023-09-30T03:51:44;25.70;;;17.45;;
77409;SDS011;66481;51.332;22.804;2023-09-30T03:55:45;28.80;;;16.70;;
77409;SDS011;66481;51.332;22.804;2023-09-30T03:59:46;26.55;;;16.33;;
77409;SDS011;66481;51.332;22.804;2023-09-30T04:03:47;26.45;;;17.40;;
77409;SDS011;66481;51.332;22.804;2023-09-30T04:07:48;22.80;;;16.35;;
77409;SDS011;66481;51.332;22.804;2023-09-30T04:11:49;25.05;;;16.73;;
77409;SDS011;66481;51.332;22.804;2023-09-30T04:15:50;26.60;;;16.48;;
77409;SDS011;66481;51.332;22.804;2023-09-30T04:19:51;27.20;;;17.52;;
77409;SDS011;66481;51.332;22.804;2023-09-30T04:23:52;25.15;;;16.80;;
77409;SDS011;66481;51.332;22.804;2023-09-30T04:27:54;24.55;;;15.88;;
77409;SDS011;66481;51.332;22.804;2023-09-30T04:31:57;23.15;;;16.50;;
77409;SDS011;66481;51.332;22.804;2023-09-30T04:35:59;27.50;;;17.98;;
77409;SDS011;66481;51.332;22.804;2023-09-30T04:40:00;27.42;;;17.95;;
77409;SDS011;66481;51.332;22.804;2023-09-30T04:44:01;24.27;;;15.93;;
77409;SDS011;66481;51.332;22.804;2023-09-30T04:48:02;25.92;;;15.85;;
77409;SDS011;66481;51.332;22.804;2023-09-30T04:52:03;23.42;;;15.40;;
77409;SDS011;66481;51.332;22.804;2023-09-30T04:56:07;21.40;;;15.48;;
77409;SDS011;66481;51.332;22.804;2023-09-30T05:00:10;23.85;;;17.20;;
77409;SDS011;66481;51.332;22.804;2023-09-30T05:04:12;24.77;;;14.38;;
77409;SDS011;66481;51.332;22.804;2023-09-30T05:08:14;21.58;;;15.55;;
77409;SDS011;66481;51.332;22.804;2023-09-30T05:12:16;20.05;;;13.63;;
77409;SDS011;66481;51.332;22.804;2023-09-30T05:16:18;18.83;;;13.30;;
77409;SDS011;66481;51.332;22.804;2023-09-30T05:20:19;16.85;;;13.50;;
77409;SDS011;66481;51.332;22.804;2023-09-30T05:24:20;17.42;;;12.57;;
77409;SDS011;66481;51.332;22.804;2023-09-30T05:28:22;22.73;;;13.13;;
77409;SDS011;66481;51.332;22.804;2023-09-30T05:36:27;18.65;;;14.27;;
77409;SDS011;66481;51.332;22.804;2023-09-30T05:40:31;19.45;;;13.10;;
77409;SDS011;66481;51.332;22.804;2023-09-30T05:44:33;19.02;;;14.73;;
77409;SDS011;66481;51.332;22.804;2023-09-30T05:48:35;19.00;;;14.93;;
77409;SDS011;66481;51.332;22.804;2023-09-30T05:52:40;19.33;;;13.95;;
77409;SDS011;66481;51.332;22.804;2023-09-30T05:56:41;23.42;;;13.35;;
77409;SDS011;66481;51.332;22.804;2023-09-30T06:00:46;19.35;;;13.45;;
77409;SDS011;66481;51.332;22.804;2023-09-30T06:04:47;20.13;;;13.30;;
77409;SDS011;66481;51.332;22.804;2023-09-30T06:08:50;18.95;;;14.82;;
77409;SDS011;66481;51.332;22.804;2023-09-30T06:12:52;17.73;;;13.90;;
77409;SDS011;66481;51.332;22.804;2023-09-30T06:16:55;19.88;;;13.90;;
77409;SDS011;66481;51.332;22.804;2023-09-30T06:20:56;19.08;;;13.38;;
77409;SDS011;66481;51.332;22.804;2023-09-30T06:24:58;18.13;;;14.13;;
77409;SDS011;66481;51.332;22.804;2023-09-30T06:28:59;18.58;;;14.02;;
77409;SDS011;66481;51.332;22.804;2023-09-30T06:33:01;17.95;;;14.18;;
77409;SDS011;66481;51.332;22.804;2023-09-30T06:37:05;16.23;;;13.32;;
77409;SDS011;66481;51.332;22.804;2023-09-30T06:41:07;17.55;;;12.55;;
77409;SDS011;66481;51.332;22.804;2023-09-30T06:49:12;20.45;;;13.48;;
77409;SDS011;66481;51.332;22.804;2023-09-30T06:53:13;16.48;;;12.98;;
77409;SDS011;66481;51.332;22.804;2023-09-30T06:57:14;15.95;;;12.50;;
77409;SDS011;66481;51.332;22.804;2023-09-30T07:01:15;18.40;;;12.77;;
77409;SDS011;66481;51.332;22.804;2023-09-30T07:05:19;13.55;;;11.77;;
77409;SDS011;66481;51.332;22.804;2023-09-30T07:09:21;17.58;;;12.32;;
77409;SDS011;66481;51.332;22.804;2023-09-30T07:13:22;19.63;;;12.18;;
77409;SDS011;66481;51.332;22.804;2023-09-30T07:17:24;20.15;;;12.13;;
77409;SDS011;66481;51.332;22.804;2023-09-30T07:21:25;16.50;;;12.93;;
77409;SDS011;66481;51.332;22.804;2023-09-30T07:25:27;15.80;;;11.52;;
77409;SDS011;66481;51.332;22.804;2023-09-30T07:29:29;17.08;;;12.85;;
77409;SDS011;66481;51.332;22.804;2023-09-30T07:33:31;20.08;;;12.57;;
77409;SDS011;66481;51.332;22.804;2023-09-30T07:37:32;17.13;;;11.38;;
77409;SDS011;66481;51.332;22.804;2023-09-30T07:41:36;15.52;;;11.00;;
77409;SDS011;66481;51.332;22.804;2023-09-30T07:45:38;15.55;;;11.82;;
77409;SDS011;66481;51.332;22.804;2023-09-30T07:49:39;16.80;;;11.07;;
77409;SDS011;66481;51.332;22.804;2023-09-30T07:53:41;15.98;;;11.40;;
77409;SDS011;66481;51.332;22.804;2023-09-30T07:57:42;19.30;;;11.73;;
77409;SDS011;66481;51.332;22.804;2023-09-30T08:01:45;19.88;;;12.85;;
77409;SDS011;66481;51.332;22.804;2023-09-30T08:05:48;16.40;;;11.85;;
77409;SDS011;66481;51.332;22.804;2023-09-30T08:09:49;15.02;;;11.40;;
77409;SDS011;66481;51.332;22.804;2023-09-30T08:13:50;15.68;;;11.32;;
77409;SDS011;66481;51.332;22.804;2023-09-30T08:17:51;17.08;;;12.60;;
77409;SDS011;66481;51.332;22.804;2023-09-30T08:21:53;19.08;;;12.05;;
77409;SDS011;66481;51.332;22.804;2023-09-30T08:25:57;17.00;;;11.50;;
77409;SDS011;66481;51.332;22.804;2023-09-30T08:29:59;17.05;;;11.18;;
77409;SDS011;66481;51.332;22.804;2023-09-30T08:34:00;15.75;;;11.55;;
77409;SDS011;66481;51.332;22.804;2023-09-30T08:38:04;18.80;;;11.35;;
77409;SDS011;66481;51.332;22.804;2023-09-30T08:42:09;15.30;;;11.23;;
77409;SDS011;66481;51.332;22.804;2023-09-30T08:46:14;13.70;;;10.43;;
77409;SDS011;66481;51.332;22.804;2023-09-30T08:50:17;16.23;;;11.15;;
77409;SDS011;66481;51.332;22.804;2023-09-30T08:54:19;17.10;;;12.48;;
77409;SDS011;66481;51.332;22.804;2023-09-30T08:58:24;19.38;;;12.18;;
77409;SDS011;66481;51.332;22.804;2023-09-30T09:02:27;14.93;;;10.75;;
77409;SDS011;66481;51.332;22.804;2023-09-30T09:06:32;16.25;;;11.32;;
77409;SDS011;66481;51.332;22.804;2023-09-30T09:10:34;19.00;;;11.95;;
77409;SDS011;66481;51.332;22.804;2023-09-30T09:14:39;17.33;;;11.55;;
77409;SDS011;66481;51.332;22.804;2023-09-30T09:18:41;17.98;;;11.07;;
77409;SDS011;66481;51.332;22.804;2023-09-30T09:22:43;16.02;;;11.88;;
77409;SDS011;66481;51.332;22.804;2023-09-30T09:26:44;18.10;;;12.95;;
77409;SDS011;66481;51.332;22.804;2023-09-30T09:30:46;19.02;;;12.55;;
77409;SDS011;66481;51.332;22.804;2023-09-30T09:35:00;15.65;;;12.00;;
77409;SDS011;66481;51.332;22.804;2023-09-30T09:39:04;19.02;;;13.15;;
77409;SDS011;66481;51.332;22.804;2023-09-30T09:43:06;15.63;;;11.27;;
77409;SDS011;66481;51.332;22.804;2023-09-30T09:47:07;17.27;;;12.18;;
77409;SDS011;66481;51.332;22.804;2023-09-30T09:51:10;21.42;;;13.00;;
77409;SDS011;66481;51.332;22.804;2023-09-30T09:55:14;21.83;;;14.07;;
77409;SDS011;66481;51.332;22.804;2023-09-30T09:59:17;17.70;;;12.60;;
77409;SDS011;66481;51.332;22.804;2023-09-30T10:03:18;16.05;;;11.13;;
77409;SDS011;66481;51.332;22.804;2023-09-30T10:07:22;15.13;;;10.27;;
77409;SDS011;66481;51.332;22.804;2023-09-30T10:11:28;13.05;;;10.07;;
77409;SDS011;66481;51.332;22.804;2023-09-30T10:19:36;15.05;;;10.73;;
77409;SDS011;66481;51.332;22.804;2023-09-30T10:28:45;12.38;;;9.27;;
77409;SDS011;66481;51.332;22.804;2023-09-30T10:36:52;13.60;;;10.77;;
77409;SDS011;66481;51.332;22.804;2023-09-30T10:40:54;14.23;;;10.05;;
77409;SDS011;66481;51.332;22.804;2023-09-30T10:44:55;13.93;;;9.55;;
77409;SDS011;66481;51.332;22.804;2023-09-30T10:49:14;15.55;;;9.38;;
77409;SDS011;66481;51.332;22.804;2023-09-30T10:53:18;17.45;;;10.68;;
77409;SDS011;66481;51.332;22.804;2023-09-30T10:57:26;14.90;;;10.60;;
77409;SDS011;66481;51.332;22.804;2023-09-30T11:01:35;16.67;;;11.38;;
77409;SDS011;66481;51.332;22.804;2023-09-30T11:05:37;15.70;;;10.98;;
77409;SDS011;66481;51.332;22.804;2023-09-30T11:09:39;15.52;;;10.98;;
77409;SDS011;66481;51.332;22.804;2023-09-30T11:13:43;14.70;;;11.10;;
77409;SDS011;66481;51.332;22.804;2023-09-30T11:17:44;15.93;;;11.73;;
77409;SDS011;66481;51.332;22.804;2023-09-30T11:21:46;15.90;;;11.98;;
77409;SDS011;66481;51.332;22.804;2023-09-30T11:29:54;18.08;;;13.82;;
77409;SDS011;66481;51.332;22.804;2023-09-30T11:33:55;19.77;;;14.13;;
77409;SDS011;66481;51.332;22.804;2023-09-30T11:37:58;19.88;;;12.77;;
77409;SDS011;66481;51.332;22.804;2023-09-30T11:42:00;22.55;;;15.20;;
77409;SDS011;66481;51.332;22.804;2023-09-30T11:50:09;20.67;;;14.70;;
77409;SDS011;66481;51.332;22.804;2023-09-30T11:54:10;27.23;;;19.50;;
77409;SDS011;66481;51.332;22.804;2023-09-30T11:58:11;17.85;;;13.82;;
77409;SDS011;66481;51.332;22.804;2023-09-30T12:02:16;17.77;;;14.07;;
77409;SDS011;66481;51.332;22.804;2023-09-30T12:06:20;18.02;;;12.88;;
77409;SDS011;66481;51.332;22.804;2023-09-30T12:10:21;20.38;;;14.00;;
77409;SDS011;66481;51.332;22.804;2023-09-30T12:14:22;20.42;;;14.43;;
77409;SDS011;66481;51.332;22.804;2023-09-30T12:18:23;16.45;;;12.45;;
77409;SDS011;66481;51.332;22.804;2023-09-30T12:22:25;13.32;;;9.90;;
77409;SDS011;66481;51.332;22.804;2023-09-30T12:26:26;12.02;;;9.43;;
77409;SDS011;66481;51.332;22.804;2023-09-30T12:30:27;12.25;;;8.32;;
77409;SDS011;66481;51.332;22.804;2023-09-30T12:34:28;13.57;;;9.77;;
77409;SDS011;66481;51.332;22.804;2023-09-30T12:38:28;13.55;;;8.85;;
77409;SDS011;66481;51.332;22.804;2023-09-30T12:42:29;12.95;;;9.88;;
77409;SDS011;66481;51.332;22.804;2023-09-30T12:46:30;14.50;;;9.65;;
77409;SDS011;66481;51.332;22.804;2023-09-30T12:50:35;14.93;;;11.40;;
77409;SDS011;66481;51.332;22.804;2023-09-30T12:54:37;19.10;;;13.15;;
77409;SDS011;66481;51.332;22.804;2023-09-30T12:58:38;19.90;;;14.48;;
77409;SDS011;66481;51.332;22.804;2023-09-30T13:02:39;21.83;;;15.48;;
77409;SDS011;66481;51.332;22.804;2023-09-30T13:06:42;22.85;;;16.45;;
77409;SDS011;66481;51.332;22.804;2023-09-30T13:10:43;27.08;;;18.10;;
77409;SDS011;66481;51.332;22.804;2023-09-30T13:14:46;29.20;;;18.70;;
77409;SDS011;66481;51.332;22.804;2023-09-30T13:18:47;28.70;;;20.60;;
77409;SDS011;66481;51.332;22.804;2023-09-30T13:22:48;28.23;;;19.90;;
77409;SDS011;66481;51.332;22.804;2023-09-30T13:26:49;29.67;;;19.85;;
77409;SDS011;66481;51.332;22.804;2023-09-30T13:30:53;26.02;;;19.00;;
77409;SDS011;66481;51.332;22.804;2023-09-30T13:34:56;35.85;;;21.67;;
77409;SDS011;66481;51.332;22.804;2023-09-30T13:38:58;28.02;;;19.92;;
77409;SDS011;66481;51.332;22.804;2023-09-30T13:42:59;29.70;;;18.63;;
77409;SDS011;66481;51.332;22.804;2023-09-30T13:47:00;25.85;;;17.95;;
77409;SDS011;66481;51.332;22.804;2023-09-30T13:51:05;25.60;;;17.92;;
77409;SDS011;66481;51.332;22.804;2023-09-30T13:55:07;28.65;;;20.27;;
77409;SDS011;66481;51.332;22.804;2023-09-30T13:59:09;23.60;;;16.50;;
77409;SDS011;66481;51.332;22.804;2023-09-30T14:03:13;24.27;;;17.30;;
77409;SDS011;66481;51.332;22.804;2023-09-30T14:07:15;24.52;;;18.30;;
77409;SDS011;66481;51.332;22.804;2023-09-30T14:11:19;25.23;;;16.70;;
77409;SDS011;66481;51.332;22.804;2023-09-30T14:15:20;22.75;;;16.63;;
77409;SDS011;66481;51.332;22.804;2023-09-30T14:19:21;22.95;;;17.00;;
77409;SDS011;66481;51.332;22.804;2023-09-30T14:23:22;20.27;;;15.00;;
77409;SDS011;66481;51.332;22.804;2023-09-30T14:27:24;15.75;;;11.38;;
77409;SDS011;66481;51.332;22.804;2023-09-30T14:31:27;14.68;;;10.75;;
77409;SDS011;66481;51.332;22.804;2023-09-30T14:35:28;12.32;;;8.52;;
77409;SDS011;66481;51.332;22.804;2023-09-30T14:39:30;10.40;;;8.13;;
77409;SDS011;66481;51.332;22.804;2023-09-30T14:43:36;19.60;;;10.63;;
77409;SDS011;66481;51.332;22.804;2023-09-30T14:47:39;11.25;;;8.07;;
77409;SDS011;66481;51.332;22.804;2023-09-30T14:51:41;12.23;;;8.20;;
77409;SDS011;66481;51.332;22.804;2023-09-30T14:55:46;10.50;;;8.57;;
77409;SDS011;66481;51.332;22.804;2023-09-30T14:59:51;8.00;;;6.40;;
77409;SDS011;66481;51.332;22.804;2023-09-30T15:03:53;10.10;;;5.75;;
77409;SDS011;66481;51.332;22.804;2023-09-30T15:07:54;8.23;;;5.82;;
77409;SDS011;66481;51.332;22.804;2023-09-30T15:11:56;7.32;;;4.57;;
77409;SDS011;66481;51.332;22.804;2023-09-30T15:15:58;8.05;;;4.70;;
77409;SDS011;66481;51.332;22.804;2023-09-30T15:20:00;10.63;;;8.57;;
77409;SDS011;66481;51.332;22.804;2023-09-30T15:24:01;10.15;;;7.85;;
77409;SDS011;66481;51.332;22.804;2023-09-30T15:28:03;14.55;;;7.10;;
77409;SDS011;66481;51.332;22.804;2023-09-30T15:32:06;8.50;;;4.78;;
77409;SDS011;66481;51.332;22.804;2023-09-30T15:36:10;9.50;;;5.60;;
77409;SDS011;66481;51.332;22.804;2023-09-30T15:40:21;10.63;;;5.45;;
77409;SDS011;66481;51.332;22.804;2023-09-30T15:44:26;8.73;;;5.35;;
77409;SDS011;66481;51.332;22.804;2023-09-30T15:48:27;27.38;;;15.10;;
77409;SDS011;66481;51.332;22.804;2023-09-30T15:52:30;15.98;;;7.50;;
77409;SDS011;66481;51.332;22.804;2023-09-30T15:56:33;21.98;;;8.82;;
77409;SDS011;66481;51.332;22.804;2023-09-30T16:00:38;13.35;;;6.65;;
77409;SDS011;66481;51.332;22.804;2023-09-30T16:04:42;20.13;;;8.20;;
77409;SDS011;66481;51.332;22.804;2023-09-30T16:08:45;14.38;;;8.00;;
77409;SDS011;66481;51.332;22.804;2023-09-30T16:12:51;11.40;;;9.07;;
77409;SDS011;66481;51.332;22.804;2023-09-30T16:17:07;11.82;;;6.38;;
77409;SDS011;66481;51.332;22.804;2023-09-30T16:21:14;19.70;;;7.40;;
77409;SDS011;66481;51.332;22.804;2023-09-30T16:25:22;13.57;;;6.22;;
77409;SDS011;66481;51.332;22.804;2023-09-30T16:29:24;8.25;;;5.05;;
77409;SDS011;66481;51.332;22.804;2023-09-30T16:33:29;9.95;;;5.10;;
77409;SDS011;66481;51.332;22.804;2023-09-30T16:37:30;7.95;;;5.15;;
77409;SDS011;66481;51.332;22.804;2023-09-30T16:41:32;7.32;;;4.13;;
77409;SDS011;66481;51.332;22.804;2023-09-30T16:45:34;7.07;;;3.35;;
77409;SDS011;66481;51.332;22.804;2023-09-30T16:49:35;11.95;;;6.22;;
77409;SDS011;66481;51.332;22.804;2023-09-30T16:53:37;14.43;;;7.65;;
77409;SDS011;66481;51.332;22.804;2023-09-30T16:57:38;7.90;;;4.25;;
77409;SDS011;66481;51.332;22.804;2023-09-30T17:01:41;5.03;;;3.05;;
77409;SDS011;66481;51.332;22.804;2023-09-30T17:05:42;5.68;;;2.80;;
77409;SDS011;66481;51.332;22.804;2023-09-30T17:09:43;5.50;;;2.67;;
77409;SDS011;66481;51.332;22.804;2023-09-30T17:13:45;7.20;;;4.00;;
77409;SDS011;66481;51.332;22.804;2023-09-30T17:17:46;5.82;;;3.20;;
77409;SDS011;66481;51.332;22.804;2023-09-30T17:21:47;6.47;;;3.45;;
77409;SDS011;66481;51.332;22.804;2023-09-30T17:25:49;9.00;;;3.22;;
77409;SDS011;66481;51.332;22.804;2023-09-30T17:29:50;5.63;;;3.50;;
77409;SDS011;66481;51.332;22.804;2023-09-30T17:33:51;8.45;;;4.07;;
77409;SDS011;66481;51.332;22.804;2023-09-30T17:37:52;5.95;;;3.78;;
77409;SDS011;66481;51.332;22.804;2023-09-30T17:41:53;8.52;;;4.25;;
77409;SDS011;66481;51.332;22.804;2023-09-30T17:45:56;14.25;;;6.45;;
77409;SDS011;66481;51.332;22.804;2023-09-30T17:49:57;159.15;;;102.30;;
77409;SDS011;66481;51.332;22.804;2023-09-30T17:53:58;266.20;;;115.68;;
77409;SDS011;66481;51.332;22.804;2023-09-30T17:57:59;66.88;;;19.15;;
77409;SDS011;66481;51.332;22.804;2023-09-30T18:02:00;101.40;;;27.38;;
77409;SDS011;66481;51.332;22.804;2023-09-30T18:06:07;363.88;;;138.10;;
77409;SDS011;66481;51.332;22.804;2023-09-30T18:10:14;361.92;;;144.00;;
77409;SDS011;66481;51.332;22.804;2023-09-30T18:14:21;179.38;;;67.43;;
77409;SDS011;66481;51.332;22.804;2023-09-30T18:18:22;17.52;;;8.77;;
77409;SDS011;66481;51.332;22.804;2023-09-30T18:22:26;10.50;;;4.93;;
77409;SDS011;66481;51.332;22.804;2023-09-30T18:26:27;7.10;;;5.03;;
77409;SDS011;66481;51.332;22.804;2023-09-30T18:30:29;8.25;;;4.47;;
77409;SDS011;66481;51.332;22.804;2023-09-30T18:34:30;8.60;;;5.22;;
77409;SDS011;66481;51.332;22.804;2023-09-30T18:38:32;11.07;;;4.97;;
77409;SDS011;66481;51.332;22.804;2023-09-30T18:42:34;8.35;;;4.88;;
77409;SDS011;66481;51.332;22.804;2023-09-30T18:46:35;11.77;;;5.40;;
77409;SDS011;66481;51.332;22.804;2023-09-30T18:50:46;10.15;;;5.38;;
77409;SDS011;66481;51.332;22.804;2023-09-30T18:54:54;12.55;;;6.40;;
77409;SDS011;66481;51.332;22.804;2023-09-30T18:58:55;11.45;;;6.28;;
77409;SDS011;66481;51.332;22.804;2023-09-30T19:02:56;10.15;;;6.03;;
77409;SDS011;66481;51.332;22.804;2023-09-30T19:06:58;9.77;;;5.35;;
77409;SDS011;66481;51.332;22.804;2023-09-30T19:11:01;11.93;;;5.40;;
77409;SDS011;66481;51.332;22.804;2023-09-30T19:15:03;8.00;;;5.63;;
77409;SDS011;66481;51.332;22.804;2023-09-30T19:19:06;11.82;;;5.90;;
77409;SDS011;66481;51.332;22.804;2023-09-30T19:23:08;11.45;;;5.82;;
77409;SDS011;66481;51.332;22.804;2023-09-30T19:27:10;9.75;;;5.70;;
77409;SDS011;66481;51.332;22.804;2023-09-30T19:31:12;11.90;;;6.55;;
77409;SDS011;66481;51.332;22.804;2023-09-30T19:35:14;11.95;;;6.75;;
77409;SDS011;66481;51.332;22.804;2023-09-30T19:39:16;11.88;;;6.90;;
77409;SDS011;66481;51.332;22.804;2023-09-30T19:43:17;14.90;;;8.32;;
77409;SDS011;66481;51.332;22.804;2023-09-30T19:47:19;19.52;;;9.63;;
77409;SDS011;66481;51.332;22.804;2023-09-30T19:51:21;18.23;;;9.18;;
77409;SDS011;66481;51.332;22.804;2023-09-30T19:55:24;19.00;;;10.27;;
77409;SDS011;66481;51.332;22.804;2023-09-30T19:59:25;15.43;;;9.77;;
77409;SDS011;66481;51.332;22.804;2023-09-30T20:03:27;18.42;;;9.52;;
77409;SDS011;66481;51.332;22.804;2023-09-30T20:07:28;16.50;;;10.30;;
77409;SDS011;66481;51.332;22.804;2023-09-30T20:11:29;17.83;;;10.05;;
77409;SDS011;66481;51.332;22.804;2023-09-30T20:15:30;17.95;;;9.43;;
77409;SDS011;66481;51.332;22.804;2023-09-30T20:19:37;16.40;;;9.07;;
77409;SDS011;66481;51.332;22.804;2023-09-30T20:23:38;20.90;;;9.50;;
77409;SDS011;66481;51.332;22.804;2023-09-30T20:27:40;18.08;;;10.10;;
77409;SDS011;66481;51.332;22.804;2023-09-30T20:31:43;16.33;;;9.43;;
77409;SDS011;66481;51.332;22.804;2023-09-30T20:35:45;19.42;;;10.55;;
77409;SDS011;66481;51.332;22.804;2023-09-30T20:39:47;21.25;;;11.15;;
77409;SDS011;66481;51.332;22.804;2023-09-30T20:43:49;18.05;;;10.48;;
77409;SDS011;66481;51.332;22.804;2023-09-30T20:47:51;19.52;;;10.80;;
77409;SDS011;66481;51.332;22.804;2023-09-30T20:51:52;22.02;;;12.15;;
77409;SDS011;66481;51.332;22.804;2023-09-30T20:55:54;19.40;;;9.43;;
77409;SDS011;66481;51.332;22.804;2023-09-30T20:59:55;18.63;;;9.60;;
77409;SDS011;66481;51.332;22.804;2023-09-30T21:03:57;17.05;;;9.43;;
77409;SDS011;66481;51.332;22.804;2023-09-30T21:07:59;17.42;;;8.75;;
77409;SDS011;66481;51.332;22.804;2023-09-30T21:12:00;17.77;;;9.00;;
77409;SDS011;66481;51.332;22.804;2023-09-30T21:16:01;19.05;;;9.25;;
77409;SDS011;66481;51.332;22.804;2023-09-30T21:20:03;16.58;;;9.05;;
77409;SDS011;66481;51.332;22.804;2023-09-30T21:24:05;15.43;;;8.48;;
77409;SDS011;66481;51.332;22.804;2023-09-30T21:28:06;14.77;;;8.65;;
77409;SDS011;66481;51.332;22.804;2023-09-30T21:32:08;16.70;;;9.13;;
77409;SDS011;66481;51.332;22.804;2023-09-30T21:36:09;18.08;;;9.50;;
77409;SDS011;66481;51.332;22.804;2023-09-30T21:40:11;16.23;;;9.23;;
77409;SDS011;66481;51.332;22.804;2023-09-30T21:44:12;17.77;;;9.20;;
77409;SDS011;66481;51.332;22.804;2023-09-30T21:48:14;17.63;;;9.63;;
77409;SDS011;66481;51.332;22.804;2023-09-30T21:52:15;17.02;;;9.15;;
77409;SDS011;66481;51.332;22.804;2023-09-30T21:56:16;19.35;;;10.07;;
77409;SDS011;66481;51.332;22.804;2023-09-30T22:00:18;17.42;;;8.32;;
77409;SDS011;66481;51.332;22.804;2023-09-30T22:08:31;13.18;;;8.00;;
77409;SDS011;66481;51.332;22.804;2023-09-30T22:12:33;15.10;;;7.13;;
77409;SDS011;66481;51.332;22.804;2023-09-30T22:16:35;13.27;;;6.55;;
77409;SDS011;66481;51.332;22.804;2023-09-30T22:20:36;12.40;;;6.15;;
77409;SDS011;66481;51.332;22.804;2023-09-30T22:24:39;14.65;;;7.53;;
77409;SDS011;66481;51.332;22.804;2023-09-30T22:28:40;14.23;;;7.22;;
77409;SDS011;66481;51.332;22.804;2023-09-30T22:32:41;14.82;;;6.88;;
77409;SDS011;66481;51.332;22.804;2023-09-30T22:36:42;13.38;;;7.85;;
77409;SDS011;66481;51.332;22.804;2023-09-30T22:40:43;12.25;;;7.13;;
77409;SDS011;66481;51.332;22.804;2023-09-30T22:44:44;14.55;;;6.18;;
77409;SDS011;66481;51.332;22.804;2023-09-30T22:48:45;13.23;;;6.45;;
77409;SDS011;66481;51.332;22.804;2023-09-30T22:52:47;12.13;;;6.30;;
77409;SDS011;66481;51.332;22.804;2023-09-30T22:56:49;13.85;;;5.85;;
77409;SDS011;66481;51.332;22.804;2023-09-30T23:00:52;10.52;;;5.55;;
77409;SDS011;66481;51.332;22.804;2023-09-30T23:04:53;11.93;;;6.38;;
77409;SDS011;66481;51.332;22.804;2023-09-30T23:08:55;12.27;;;6.53;;
77409;SDS011;66481;51.332;22.804;2023-09-30T23:12:56;10.65;;;5.80;;
77409;SDS011;66481;51.332;22.804;2023-09-30T23:16:57;10.90;;;5.72;;
77409;SDS011;66481;51.332;22.804;2023-09-30T23:20:59;12.35;;;5.75;;
77409;SDS011;66481;51.332;22.804;2023-09-30T23:25:02;12.55;;;6.00;;
77409;SDS011;66481;51.332;22.804;2023-09-30T23:29:11;11.23;;;5.05;;
77409;SDS011;66481;51.332;22.804;2023-09-30T23:33:13;12.75;;;5.18;;
77409;SDS011;66481;51.332;22.804;2023-09-30T23:37:14;10.48;;;4.65;;
77409;SDS011;66481;51.332;22.804;2023-09-30T23:41:15;8.23;;;4.57;;
77409;SDS011;66481;51.332;22.804;2023-09-30T23:45:17;9.48;;;4.60;;
77409;SDS011;66481;51.332;22.804;2023-09-30T23:49:19;10.52;;;4.93;;
77409;SDS011;66481;51.332;22.804;2023-09-30T23:53:26;11.05;;;5.13;;
77409;SDS011;66481;51.332;22.804;2023-09-30T23:57:28;10.23;;;4.95;;
